Time;durP1;ratioP1;P1;durP2;ratioP2;P2;SDS_P1;SDS_P2;PMS_P1;PMS_P2;Temp;Humidity;BMP_temperature;BMP_pressure;BME280_temperature;BME280_humidity;BME280_pressure;Samples;Min_cycle;Max_cycle;Signal;HPM_P1;HPM_P2
2022/01/03 00:00:11;;;;;;;13.02;2.53;;;;;;;;;;5054251;28;20048;-84
2022/01/03 00:02:38;;;;;;;13.93;3.13;;;8.00;99.90;;;;;;5050947;28;20048;-84
2022/01/03 00:05:04;;;;;;;17.65;2.42;;;;;;;;;;5053634;28;20103;-84
2022/01/03 00:07:32;;;;;;;15.23;2.50;;;;;;;;;;5054163;28;20079;-84
2022/01/03 00:09:59;;;;;;;15.38;2.88;;;;;;;;;;5064107;28;20048;-83
2022/01/03 00:12:26;;;;;;;26.08;3.80;;;;;;;;;;5050134;28;20507;-83
2022/01/03 00:14:53;;;;;;;13.10;2.97;;;;;;;;;;5046895;28;20131;-83
2022/01/03 00:17:19;;;;;;;24.98;5.03;;;;;;;;;;5044515;28;20075;-84
2022/01/03 00:19:46;;;;;;;10.23;2.30;;;;;;;;;;5042381;28;20044;-84
2022/01/03 00:22:12;;;;;;;17.52;3.45;;;;;;;;;;5045914;28;20408;-85
2022/01/03 00:24:39;;;;;;;11.70;3.15;;;;;;;;;;5041424;28;20040;-85
2022/01/03 00:27:05;;;;;;;13.70;3.38;;;;;;;;;;5055906;28;20033;-84
2022/01/03 00:29:52;;;;;;;16.23;2.88;;;;;;;;;;5059853;28;20515;-85
2022/01/03 00:32:21;;;;;;;14.57;3.33;;;;;;;;;;5054338;28;20076;-85
2022/01/03 00:34:50;;;;;;;11.60;3.10;;;;;;;;;;5053963;28;20616;-84
2022/01/03 00:37:16;;;;;;;19.65;2.83;;;;;;;;;;5043500;28;20055;-84
2022/01/03 00:39:42;;;;;;;18.08;2.75;;;;;;;;;;5044084;28;20123;-84
2022/01/03 00:42:08;;;;;;;11.60;1.90;;;;;;;;;;5058800;28;20060;-83
2022/01/03 00:44:34;;;;;;;9.95;2.28;;;;;;;;;;5055084;28;20043;-84
2022/01/03 00:47:00;;;;;;;13.88;2.05;;;;;;;;;;5053934;28;20036;-83
2022/01/03 00:49:27;;;;;;;10.48;2.05;;;;;;;;;;5059089;28;20037;-84
2022/01/03 00:51:53;;;;;;;10.63;2.30;;;;;;;;;;5042389;28;20086;-84
2022/01/03 00:54:19;;;;;;;15.93;2.65;;;;;;;;;;5057275;28;20781;-83
2022/01/03 00:56:48;;;;;;;25.17;2.92;;;8.10;99.90;;;;;;5053821;28;20048;-83
2022/01/03 00:59:15;;;;;;;11.63;2.65;;;;;;;;;;5055419;28;20378;-83
2022/01/03 01:01:44;;;;;;;15.50;2.63;;;;;;;;;;5040021;28;20051;-84
2022/01/03 01:04:10;;;;;;;27.40;2.97;;;;;;;;;;5058951;28;20545;-84
2022/01/03 01:06:37;;;;;;;14.52;2.85;;;;;;;;;;5056048;28;20523;-83
2022/01/03 01:09:07;;;;;;;14.18;2.83;;;;;;;;;;5042286;28;20047;-83
2022/01/03 01:11:33;;;;;;;27.98;3.45;;;;;;;;;;5042924;28;20040;-83
2022/01/03 01:14:01;;;;;;;30.05;3.78;;;8.20;99.90;;;;;;5055839;28;20463;-83
2022/01/03 01:16:27;;;;;;;13.77;2.85;;;;;;;;;;5056901;28;20041;-82
2022/01/03 01:18:53;;;;;;;17.95;2.58;;;;;;;;;;5039256;28;20041;-83
2022/01/03 01:21:20;;;;;;;21.27;3.35;;;;;;;;;;5033846;28;20044;-83
2022/01/03 01:23:49;;;;;;;17.05;3.78;;;;;;;;;;5053596;28;20047;-83
2022/01/03 01:29:03;;;;;;;17.05;3.28;;;;;;;;;;5051918;28;20498;-82
2022/01/03 01:31:31;;;;;;;17.52;3.55;;;8.30;99.90;;;;;;5037666;28;20603;-83
2022/01/03 01:33:58;;;;;;;12.57;2.03;;;;;;;;;;5050232;28;20037;-83
2022/01/03 01:36:27;;;;;;;15.68;2.85;;;8.30;99.90;;;;;;5059610;28;20494;-83
2022/01/03 01:38:59;;;;;;;16.80;2.83;;;;;;;;;;5043269;28;20041;-83
2022/01/03 01:41:26;;;;;;;20.00;3.33;;;;;;;;;;5043070;28;20067;-83
2022/01/03 01:43:53;;;;;;;15.18;2.85;;;;;;;;;;5051881;28;20052;-84
2022/01/03 01:46:24;;;;;;;23.98;3.50;;;;;;;;;;5057236;28;20549;-83
2022/01/03 01:48:50;;;;;;;18.08;2.63;;;;;;;;;;5050893;28;20040;-84
2022/01/03 01:51:17;;;;;;;21.63;3.00;;;;;;;;;;5052912;28;20049;-82
2022/01/03 01:53:52;;;;;;;23.63;3.28;;;;;;;;;;5060529;28;20048;-83
2022/01/03 01:56:19;;;;;;;27.23;3.67;;;;;;;;;;5058380;28;20070;-83
2022/01/03 01:59:11;;;;;;;17.83;2.65;;;8.20;99.90;;;;;;5045065;28;20058;-83
2022/01/03 02:01:50;;;;;;;17.83;2.50;;;;;;;;;;5026398;28;20076;-82
2022/01/03 02:04:31;;;;;;;21.95;3.33;;;;;;;;;;5043606;28;20048;-83
2022/01/03 02:07:04;;;;;;;16.98;2.67;;;;;;;;;;5062684;28;20191;-82
2022/01/03 02:09:41;;;;;;;16.52;2.15;;;;;;;;;;5062645;28;20044;-83
2022/01/03 02:12:13;;;;;;;20.42;3.45;;;;;;;;;;5045091;28;20052;-83
2022/01/03 02:14:40;;;;;;;15.18;2.47;;;;;;;;;;5054528;28;20051;-82
2022/01/03 02:17:06;;;;;;;15.35;3.28;;;;;;;;;;5061525;28;20072;-83
2022/01/03 02:19:35;;;;;;;14.88;3.25;;;;;;;;;;5045754;28;20040;-83
2022/01/03 02:22:01;;;;;;;23.98;3.65;;;;;;;;;;5060991;28;20047;-83
2022/01/03 02:24:27;;;;;;;17.15;2.70;;;;;;;;;;5062492;28;20691;-83
2022/01/03 02:26:53;;;;;;;16.75;3.65;;;;;;;;;;5062822;28;20037;-82
2022/01/03 02:29:20;;;;;;;25.75;4.55;;;;;;;;;;5061586;28;20538;-82
2022/01/03 02:31:46;;;;;;;18.48;3.83;;;;;;;;;;5054164;28;20044;-82
2022/01/03 02:34:12;;;;;;;26.38;4.05;;;;;;;;;;5041757;28;20043;-82
2022/01/03 02:36:42;;;;;;;27.17;4.20;;;;;;;;;;5057544;28;20075;-81
2022/01/03 02:39:09;;;;;;;17.33;3.22;;;;;;;;;;5058486;28;20032;-82
2022/01/03 02:41:35;;;;;;;18.13;3.03;;;;;;;;;;5059811;28;20040;-84
2022/01/03 02:44:01;;;;;;;18.15;2.72;;;;;;;;;;5059277;28;20040;-82
2022/01/03 02:46:27;;;;;;;16.08;3.50;;;;;;;;;;5058121;28;20398;-82
2022/01/03 02:48:53;;;;;;;21.25;3.58;;;;;;;;;;5056643;28;20105;-82
2022/01/03 02:51:19;;;;;;;26.27;3.72;;;;;;;;;;5053851;28;20051;-83
2022/01/03 02:53:46;;;;;;;22.30;3.55;;;;;;;;;;5060949;28;20056;-81
2022/01/03 02:56:12;;;;;;;30.08;3.78;;;;;;;;;;5060834;28;20115;-82
2022/01/03 02:58:38;;;;;;;22.58;4.40;;;;;;;;;;5062647;28;20460;-84
2022/01/03 03:01:05;;;;;;;25.23;4.97;;;;;;;;;;5042057;28;20047;-82
2022/01/03 03:03:31;;;;;;;26.50;4.68;;;;;;;;;;5045092;28;20114;-82
2022/01/03 03:05:59;;;;;;;14.50;3.28;;;;;;;;;;5054794;28;20573;-83
2022/01/03 03:08:25;;;;;;;22.15;3.80;;;;;;;;;;5039816;28;20044;-82
2022/01/03 03:10:52;;;;;;;18.42;3.25;;;;;;;;;;5055672;28;20744;-82
2022/01/03 03:13:18;;;;;;;24.63;4.60;;;;;;;;;;5054289;28;20037;-83
2022/01/03 03:15:44;;;;;;;27.23;4.55;;;;;;;;;;5059702;28;20037;-83
2022/01/03 03:18:10;;;;;;;20.83;3.15;;;;;;;;;;5059951;28;20148;-82
2022/01/03 03:20:37;;;;;;;26.80;3.75;;;;;;;;;;5043090;28;20049;-83
2022/01/03 03:23:03;;;;;;;24.88;3.63;;;;;;;;;;5055535;28;20045;-83
2022/01/03 03:25:32;;;;;;;19.15;2.88;;;8.20;99.90;;;;;;5049771;28;20889;-83
2022/01/03 03:28:00;;;;;;;16.52;4.13;;;;;;;;;;5042642;28;20166;-83
2022/01/03 03:30:28;;;;;;;22.08;3.55;;;;;;;;;;5045838;28;20106;-83
2022/01/03 03:32:56;;;;;;;31.92;5.55;;;;;;;;;;5061085;28;20037;-83
2022/01/03 03:35:22;;;;;;;17.40;3.78;;;8.10;99.90;;;;;;5056885;28;20058;-84
2022/01/03 03:37:48;;;;;;;21.00;2.75;;;;;;;;;;5057569;28;20045;-83
2022/01/03 03:40:15;;;;;;;22.88;3.38;;;;;;;;;;5054567;28;20048;-82
2022/01/03 03:42:41;;;;;;;22.60;3.15;;;;;;;;;;5057478;28;20043;-83
2022/01/03 03:45:09;;;;;;;23.63;4.38;;;8.10;99.90;;;;;;5042636;28;20052;-83
2022/01/03 03:47:35;;;;;;;21.88;3.75;;;;;;;;;;5053674;28;20066;-83
2022/01/03 03:50:01;;;;;;;39.17;4.38;;;;;;;;;;5058410;28;20036;-84
2022/01/03 03:52:27;;;;;;;21.65;4.22;;;;;;;;;;5061218;28;20060;-83
2022/01/03 03:54:53;;;;;;;23.85;3.25;;;;;;;;;;5038251;28;20036;-83
2022/01/03 03:57:19;;;;;;;20.55;4.30;;;;;;;;;;5042625;28;20040;-84
2022/01/03 03:59:45;;;;;;;20.90;3.30;;;;;;;;;;5059537;28;20713;-83
2022/01/03 04:02:12;;;;;;;26.20;5.75;;;;;;;;;;5057234;28;20052;-83
2022/01/03 04:04:38;;;;;;;35.85;5.22;;;;;;;;;;5037168;28;20084;-84
2022/01/03 04:07:04;;;;;;;29.17;4.30;;;;;;;;;;5060437;28;20526;-84
2022/01/03 04:09:30;;;;;;;15.10;3.03;;;;;;;;;;5057906;28;20067;-84
2022/01/03 04:11:57;;;;;;;12.85;2.35;;;;;;;;;;5057980;28;20037;-83
2022/01/03 04:14:23;;;;;;;22.60;2.78;;;;;;;;;;5038497;28;20036;-84
2022/01/03 04:16:49;;;;;;;18.90;3.20;;;;;;;;;;5044436;28;20036;-84
2022/01/03 04:19:15;;;;;;;22.50;4.30;;;;;;;;;;5058875;28;20045;-84
2022/01/03 04:21:41;;;;;;;21.42;3.17;;;;;;;;;;5055462;28;20059;-83
2022/01/03 04:24:08;;;;;;;20.92;3.35;;;;;;;;;;5055457;28;20074;-83
2022/01/03 04:26:35;;;;;;;27.95;4.28;;;;;;;;;;5056480;28;20123;-84
2022/01/03 04:29:01;;;;;;;20.45;3.42;;;;;;;;;;5041965;28;20048;-83
2022/01/03 04:31:28;;;;;;;16.65;3.47;;;;;;;;;;5051689;28;20058;-83
2022/01/03 04:33:54;;;;;;;27.33;3.58;;;;;;;;;;5041640;28;20037;-83
2022/01/03 04:36:20;;;;;;;21.00;3.63;;;;;;;;;;5034605;28;20040;-82
2022/01/03 04:38:46;;;;;;;20.98;4.35;;;;;;;;;;5039445;28;20040;-83
2022/01/03 04:41:12;;;;;;;13.02;3.33;;;;;;;;;;5058576;28;20508;-83
2022/01/03 04:43:41;;;;;;;29.02;3.53;;;;;;;;;;5054321;28;20094;-83
2022/01/03 04:46:08;;;;;;;20.92;4.00;;;;;;;;;;5039399;28;20049;-83
2022/01/03 04:48:35;;;;;;;20.35;3.72;;;;;;;;;;5054488;28;20407;-83
2022/01/03 04:51:01;;;;;;;27.23;4.07;;;;;;;;;;5043293;28;20526;-83
2022/01/03 04:53:27;;;;;;;24.88;4.55;;;;;;;;;;5060110;28;20094;-83
2022/01/03 04:55:54;;;;;;;18.55;3.88;;;;;;;;;;5051449;28;20041;-83
2022/01/03 04:58:20;;;;;;;21.55;3.95;;;;;;;;;;5056071;28;20123;-83
2022/01/03 05:00:47;;;;;;;20.25;4.15;;;;;;;;;;5059439;28;20160;-83
2022/01/03 05:03:13;;;;;;;27.35;4.18;;;;;;;;;;5060516;28;20048;-84
2022/01/03 05:05:39;;;;;;;19.65;3.38;;;;;;;;;;5043927;28;20530;-83
2022/01/03 05:08:06;;;;;;;14.48;2.78;;;;;;;;;;5052120;28;20463;-83
2022/01/03 05:10:33;;;;;;;13.77;3.65;;;;;;;;;;5041595;28;20147;-83
2022/01/03 05:12:59;;;;;;;25.17;4.47;;;;;;;;;;5043328;28;20036;-84
2022/01/03 05:15:25;;;;;;;22.00;4.55;;;;;;;;;;5044392;28;20076;-84
2022/01/03 05:17:51;;;;;;;30.02;4.35;;;;;;;;;;5041670;28;20045;-83
2022/01/03 05:20:17;;;;;;;16.00;3.70;;;;;;;;;;5058452;28;20459;-83
2022/01/03 05:22:43;;;;;;;27.30;3.67;;;;;;;;;;5060386;28;20050;-84
2022/01/03 05:25:10;;;;;;;25.17;5.43;;;;;;;;;;5051120;28;20083;-83
2022/01/03 05:27:37;;;;;;;23.83;3.88;;;;;;;;;;5058325;28;20048;-83
2022/01/03 05:30:04;;;;;;;21.92;3.63;;;;;;;;;;5063138;28;20044;-83
2022/01/03 05:32:30;;;;;;;17.17;3.85;;;;;;;;;;5061283;28;20059;-83
2022/01/03 05:34:57;;;;;;;26.98;5.68;;;;;;;;;;5060170;28;20060;-83
2022/01/03 05:37:23;;;;;;;30.00;4.55;;;;;;;;;;5064198;28;20048;-84
2022/01/03 05:39:50;;;;;;;24.60;4.90;;;;;;;;;;5061747;28;20037;-81
2022/01/03 05:42:16;;;;;;;40.15;5.45;;;;;;;;;;5063219;28;20055;-83
2022/01/03 05:44:42;;;;;;;35.83;4.72;;;;;;;;;;5065585;28;20110;-83
2022/01/03 05:47:08;;;;;;;32.65;4.85;;;;;;;;;;5062221;28;20072;-83
2022/01/03 05:49:34;;;;;;;23.08;4.00;;;;;;;;;;5062929;28;20052;-83
2022/01/03 05:52:00;;;;;;;22.10;4.22;;;;;;;;;;5060888;28;20044;-84
2022/01/03 05:54:27;;;;;;;27.33;4.43;;;;;;;;;;5061201;28;20045;-83
2022/01/03 05:56:53;;;;;;;25.83;4.13;;;;;;;;;;5037185;28;20124;-83
2022/01/03 05:59:19;;;;;;;24.73;3.88;;;;;;;;;;5063193;28;20522;-83
2022/01/03 06:01:46;;;;;;;26.27;4.75;;;;;;;;;;5044685;28;20097;-83
2022/01/03 06:04:24;;;;;;;13.18;3.15;;;;;;;;;;5064428;28;20488;-83
2022/01/03 06:07:01;;;;;;;35.72;5.32;;;;;;;;;;5044271;28;20137;-83
2022/01/03 06:09:27;;;;;;;19.73;3.05;;;;;;;;;;5046776;28;20048;-82
2022/01/03 06:11:53;;;;;;;22.92;4.85;;;;;;;;;;5037924;28;20036;-82
2022/01/03 06:14:20;;;;;;;20.35;3.35;;;;;;;;;;5060554;28;20503;-83
2022/01/03 06:16:48;;;;;;;25.73;4.95;;;8.20;99.90;;;;;;5041578;28;20044;-83
2022/01/03 06:19:15;;;;;;;30.50;5.00;;;;;;;;;;5061554;28;20523;-83
2022/01/03 06:21:41;;;;;;;21.60;4.47;;;;;;;;;;5055294;28;20496;-84
2022/01/03 06:24:11;;;;;;;34.88;6.28;;;;;;;;;;5044489;28;20549;-83
2022/01/03 06:26:41;;;;;;;27.90;4.90;;;8.30;99.90;;;;;;5061589;28;20049;-83
2022/01/03 06:29:08;;;;;;;30.08;4.45;;;;;;;;;;5062848;28;20086;-83
2022/01/03 06:31:34;;;;;;;28.02;3.70;;;;;;;;;;5039012;28;20041;-82
2022/01/03 06:34:00;;;;;;;20.17;4.30;;;;;;;;;;5060445;28;20076;-82
2022/01/03 06:36:27;;;;;;;21.73;3.28;;;;;;;;;;5055775;28;20049;-82
2022/01/03 06:38:53;;;;;;;17.70;3.30;;;;;;;;;;5060738;28;20044;-83
2022/01/03 06:41:19;;;;;;;26.40;5.95;;;;;;;;;;5060235;28;20048;-83
2022/01/03 06:43:45;;;;;;;21.00;4.05;;;;;;;;;;5061814;28;20045;-82
2022/01/03 06:46:12;;;;;;;31.67;5.82;;;;;;;;;;5058255;28;20053;-83
2022/01/03 06:48:38;;;;;;;22.05;4.82;;;;;;;;;;5061334;28;20835;-83
2022/01/03 06:51:04;;;;;;;25.90;4.60;;;;;;;;;;5062794;28;20125;-83
2022/01/03 06:53:30;;;;;;;21.42;4.22;;;;;;;;;;5060090;28;20036;-83
2022/01/03 06:55:56;;;;;;;36.25;5.78;;;;;;;;;;5037672;28;20045;-83
2022/01/03 06:58:22;;;;;;;22.48;4.43;;;;;;;;;;5044312;28;20037;-83
2022/01/03 07:00:48;;;;;;;24.83;4.10;;;;;;;;;;5062440;28;20044;-82
2022/01/03 07:03:14;;;;;;;23.90;3.67;;;;;;;;;;5059828;28;20043;-83
2022/01/03 07:05:40;;;;;;;14.75;3.38;;;;;;;;;;5044375;28;20041;-83
2022/01/03 07:08:07;;;;;;;20.42;5.50;;;;;;;;;;5061146;28;20037;-83
2022/01/03 07:10:33;;;;;;;24.42;4.30;;;;;;;;;;5061597;28;20085;-83
2022/01/03 07:13:00;;;;;;;15.60;3.85;;;;;;;;;;5062161;28;20102;-84
2022/01/03 07:20:56;;;;;;;26.57;3.87;;;;;;;;;;5060398;28;20096;-83
2022/01/03 07:23:22;;;;;;;39.00;6.20;;;;;;;;;;5060212;28;20119;-82
2022/01/03 07:25:48;;;;;;;20.63;5.53;;;;;;;;;;5059531;28;20599;-82
2022/01/03 07:28:15;;;;;;;15.60;3.70;;;;;;;;;;5059051;28;20053;-83
2022/01/03 07:30:42;;;;;;;28.60;4.07;;;;;;;;;;5059258;28;20040;-83
2022/01/03 07:33:08;;;;;;;20.42;4.13;;;;;;;;;;5060329;28;20124;-85
2022/01/03 07:35:35;;;;;;;31.23;4.38;;;;;;;;;;5036019;28;20496;-84
2022/01/03 07:38:02;;;;;;;24.02;5.07;;;;;;;;;;5056749;28;20059;-83
2022/01/03 07:40:29;;;;;;;30.27;4.63;;;;;;;;;;5055912;28;20511;-84
2022/01/03 07:42:55;;;;;;;20.90;5.10;;;;;;;;;;5049745;28;20036;-84
2022/01/03 07:45:21;;;;;;;20.95;4.43;;;;;;;;;;5045475;28;20539;-82
2022/01/03 07:47:47;;;;;;;20.05;3.88;;;;;;;;;;5043683;28;20036;-83
2022/01/03 07:50:14;;;;;;;20.23;3.60;;;;;;;;;;5057551;28;20036;-83
2022/01/03 07:52:40;;;;;;;21.60;3.80;;;;;;;;;;5061730;28;20042;-84
2022/01/03 07:55:08;;;;;;;24.85;5.40;;;;;;;;;;5055175;28;20314;-84
2022/01/03 07:57:34;;;;;;;31.42;5.13;;;;;;;;;;5053697;28;20078;-84
2022/01/03 08:00:00;;;;;;;16.30;3.65;;;;;;;;;;5050059;28;20121;-84
2022/01/03 08:02:28;;;;;;;23.45;4.93;;;;;;;;;;5063834;28;20111;-84
2022/01/03 08:04:55;;;;;;;20.42;3.63;;;;;;;;;;5036898;28;20590;-84
2022/01/03 08:07:21;;;;;;;25.65;3.70;;;;;;;;;;5059380;28;20097;-83
2022/01/03 08:09:47;;;;;;;17.70;3.90;;;;;;;;;;5061577;28;20454;-84
2022/01/03 08:12:13;;;;;;;26.52;5.15;;;;;;;;;;5058180;28;20123;-82
2022/01/03 08:14:39;;;;;;;17.23;4.20;;;;;;;;;;5059201;28;20091;-84
2022/01/03 08:17:05;;;;;;;24.35;4.43;;;;;;;;;;5055131;28;20056;-83
2022/01/03 08:19:32;;;;;;;30.85;4.43;;;;;;;;;;5053339;28;20450;-83
2022/01/03 08:21:58;;;;;;;16.40;3.40;;;;;;;;;;5057049;28;20390;-84
2022/01/03 08:24:24;;;;;;;25.25;4.53;;;;;;;;;;5057239;28;20044;-82
2022/01/03 08:26:50;;;;;;;18.08;3.00;;;;;;;;;;5039012;28;20119;-82
2022/01/03 08:29:16;;;;;;;24.00;4.95;;;;;;;;;;5052787;28;20280;-83
2022/01/03 08:31:42;;;;;;;24.60;4.93;;;;;;;;;;5033729;28;20045;-82
2022/01/03 08:34:08;;;;;;;23.33;5.57;;;;;;;;;;5059051;28;20056;-82
2022/01/03 08:36:34;;;;;;;26.33;4.03;;;;;;;;;;5057465;28;20127;-82
2022/01/03 08:39:01;;;;;;;28.15;4.05;;;;;;;;;;5058985;28;20419;-83
2022/01/03 08:41:27;;;;;;;18.77;5.05;;;;;;;;;;5053880;28;20135;-82
2022/01/03 08:43:53;;;;;;;29.60;5.45;;;;;;;;;;5057123;28;20040;-82
2022/01/03 08:46:19;;;;;;;31.23;3.85;;;;;;;;;;5059905;28;20040;-82
2022/01/03 08:48:46;;;;;;;28.27;4.90;;;;;;;;;;5052161;28;20131;-82
2022/01/03 08:51:12;;;;;;;19.85;3.75;;;;;;;;;;5041710;28;20052;-82
2022/01/03 08:53:38;;;;;;;26.50;3.92;;;;;;;;;;5050570;28;20075;-82
2022/01/03 08:56:04;;;;;;;24.48;4.72;;;;;;;;;;5060512;28;20560;-82
2022/01/03 08:58:31;;;;;;;27.15;5.15;;;;;;;;;;5059112;28;20052;-82
2022/01/03 09:00:57;;;;;;;32.85;5.15;;;;;;;;;;5056923;28;20302;-82
2022/01/03 09:03:23;;;;;;;25.38;4.68;;;;;;;;;;5039598;28;20388;-82
2022/01/03 09:05:49;;;;;;;22.05;3.92;;;;;;;;;;5035296;28;20037;-82
2022/01/03 09:08:17;;;;;;;24.70;4.50;;;;;;;;;;5063795;28;20128;-82
2022/01/03 09:10:43;;;;;;;29.13;4.43;;;;;;;;;;5044200;28;20119;-81
2022/01/03 09:13:09;;;;;;;18.52;3.85;;;;;;;;;;5058014;28;20508;-82
2022/01/03 09:15:37;;;;;;;16.30;3.85;;;;;;;;;;5060195;28;20112;-82
2022/01/03 09:18:03;;;;;;;25.77;6.03;;;;;;;;;;5059792;28;20044;-82
2022/01/03 09:20:30;;;;;;;30.85;5.30;;;;;;;;;;5059639;28;20048;-81
2022/01/03 09:23:05;;;;;;;24.35;4.32;;;;;;;;;;5041329;28;20036;-82
2022/01/03 09:30:52;;;;;;;31.83;4.07;;;;;;;;;;5056342;28;20048;-82
2022/01/03 09:33:18;;;;;;;23.85;5.13;;;;;;;;;;5053558;28;20052;-82
2022/01/03 09:35:45;;;;;;;27.55;4.75;;;;;;;;;;5060052;28;20048;-83
2022/01/03 09:38:11;;;;;;;29.40;5.05;;;;;;;;;;5040336;28;20425;-84
2022/01/03 09:40:39;;;;;;;21.55;4.75;;;;;;;;;;5052773;28;20045;-84
2022/01/03 09:43:08;;;;;;;24.45;4.20;;;;;;;;;;5039490;28;20052;-86
2022/01/03 09:45:34;;;;;;;27.67;4.80;;;;;;;;;;5035147;28;20516;-85
2022/01/03 09:48:02;;;;;;;20.95;4.05;;;;;;;;;;5047061;28;20040;-85
2022/01/03 09:50:28;;;;;;;18.92;4.10;;;;;;;;;;5057930;28;20048;-84
2022/01/03 09:52:55;;;;;;;35.10;7.22;;;10.30;99.90;;;;;;5054472;28;20545;-88
2022/01/03 09:55:22;;;;;;;21.25;3.70;;;;;;;;;;5055707;28;20083;-88
2022/01/03 09:57:48;;;;;;;19.63;3.42;;;;;;;;;;5044262;28;20275;-87
2022/01/03 10:00:16;;;;;;;16.58;3.38;;;;;;;;;;5044956;28;20082;-86
2022/01/03 10:02:44;;;;;;;15.88;3.45;;;;;;;;;;5059221;28;20075;-86
2022/01/03 10:05:10;;;;;;;24.70;4.65;;;;;;;;;;5036626;28;20045;-88
2022/01/03 10:07:39;;;;;;;25.58;4.20;;;;;;;;;;5037912;28;20041;-87
2022/01/03 10:10:05;;;;;;;17.75;3.60;;;;;;;;;;5039897;28;20052;-86
2022/01/03 10:12:31;;;;;;;27.63;3.75;;;;;;;;;;5057385;28;20048;-87
2022/01/03 10:14:58;;;;;;;23.25;2.90;;;;;;;;;;5043045;28;21213;-86
2022/01/03 10:17:24;;;;;;;14.30;3.33;;;;;;;;;;5049048;28;20070;-86
2022/01/03 10:19:53;;;;;;;26.88;4.70;;;;;;;;;;5043791;28;20087;-86
2022/01/03 10:22:21;;;;;;;23.65;3.92;;;;;;;;;;5038903;28;20068;-85
2022/01/03 10:24:48;;;;;;;24.27;4.85;;;;;;;;;;5036441;28;20055;-85
2022/01/03 10:27:14;;;;;;;23.85;4.65;;;;;;;;;;5038887;28;20513;-85
2022/01/03 10:29:41;;;;;;;33.03;4.72;;;;;;;;;;5060216;28;20084;-83
2022/01/03 10:32:10;;;;;;;24.77;4.50;;;;;;;;;;5044173;28;20049;-85
2022/01/03 10:34:37;;;;;;;28.83;5.28;;;;;;;;;;5039666;28;20168;-85
2022/01/03 10:37:11;;;;;;;25.25;3.85;;;;;;;;;;5062089;28;20036;-85
2022/01/03 10:39:37;;;;;;;29.23;4.38;;;;;;;;;;5043704;28;20188;-84
2022/01/03 10:42:20;;;;;;;25.42;5.25;;;;;;;;;;5050263;28;20040;-84
2022/01/03 10:44:48;;;;;;;27.83;5.28;;;;;;;;;;5057551;28;20058;-85
2022/01/03 10:47:30;;;;;;;20.88;4.57;;;11.20;97.50;;;;;;5058831;28;20131;-84
2022/01/03 10:49:57;;;;;;;22.95;4.80;;;;;;;;;;5039355;28;20506;-84
2022/01/03 10:52:27;;;;;;;28.85;7.10;;;;;;;;;;5060100;28;20052;-84
2022/01/03 10:55:16;;;;;;;21.63;3.10;;;;;;;;;;5036873;28;20416;-84
2022/01/03 10:57:49;;;;;;;32.72;5.13;;;;;;;;;;5055390;28;20156;-84
2022/01/03 11:00:16;;;;;;;19.88;3.80;;;;;;;;;;5057832;28;20037;-84
2022/01/03 11:03:05;;;;;;;27.42;4.50;;;;;;;;;;5059668;28;20044;-83
2022/01/03 11:05:43;;;;;;;28.02;6.05;;;;;;;;;;5056923;28;20499;-85
2022/01/03 11:10:45;;;;;;;20.38;3.42;;;;;;;;;;5055235;28;20079;-84
2022/01/03 11:13:23;;;;;;;24.10;4.80;;;11.60;94.30;;;;;;5054532;28;20118;-84
2022/01/03 11:15:56;;;;;;;23.40;4.50;;;;;;;;;;5042696;28;20500;-84
2022/01/03 11:18:27;;;;;;;21.90;3.17;;;;;;;;;;5051845;28;20636;-84
2022/01/03 11:21:06;;;;;;;15.30;3.42;;;;;;;;;;5043092;28;20044;-83
2022/01/03 11:23:33;;;;;;;26.92;4.32;;;;;;;;;;5038514;28;20103;-83
2022/01/03 11:26:04;;;;;;;20.08;3.78;;;;;;;;;;5057527;28;20041;-83
2022/01/03 11:28:30;;;;;;;19.52;3.78;;;;;;;;;;5057126;28;20094;-83
2022/01/03 11:30:59;;;;;;;23.27;4.32;;;;;;;;;;5038962;28;20083;-83
2022/01/03 11:33:25;;;;;;;18.67;3.70;;;;;;;;;;5054115;28;20563;-83
2022/01/03 11:35:52;;;;;;;15.57;3.40;;;;;;;;;;5054030;28;20044;-83
2022/01/03 11:38:23;;;;;;;20.63;3.38;;;;;;;;;;5057407;28;20041;-83
2022/01/03 11:40:50;;;;;;;16.40;3.90;;;;;;;;;;5041096;28;20048;-83
2022/01/03 11:43:16;;;;;;;21.00;3.10;;;12.40;93.30;;;;;;5057485;28;20048;-83
2022/01/03 11:45:43;;;;;;;20.10;3.88;;;;;;;;;;5033634;28;20390;-83
2022/01/03 11:48:10;;;;;;;23.95;3.38;;;;;;;;;;5034334;28;20045;-83
2022/01/03 11:50:37;;;;;;;26.50;6.05;;;10.30;96.60;;;;;;5052011;28;20047;-82
2022/01/03 11:53:07;;;;;;;15.98;2.35;;;;;;;;;;5037748;28;20036;-82
2022/01/03 11:55:39;;;;;;;24.52;3.65;;;;;;;;;;5056122;28;20036;-82
2022/01/03 12:06:05;;;;;;;14.95;3.47;;;12.20;95.10;;;;;;5057225;28;20450;-82
2022/01/03 12:08:33;;;;;;;26.58;4.18;;;;;;;;;;5043084;28;20113;-82
2022/01/03 12:11:00;;;;;;;26.77;4.18;;;;;;;;;;5055698;28;20075;-82
2022/01/03 12:13:45;;;;;;;20.95;3.92;;;;;;;;;;5043804;28;20032;-82
2022/01/03 12:16:12;;;;;;;26.10;4.25;;;;;;;;;;5057318;28;20044;-83
2022/01/03 12:18:38;;;;;;;18.58;3.05;;;;;;;;;;5056804;28;20074;-82
2022/01/03 12:21:05;;;;;;;23.10;4.15;;;;;;;;;;5057851;28;20048;-82
2022/01/03 12:23:42;;;;;;;25.35;3.95;;;;;;;;;;5055526;28;20703;-82
2022/01/03 12:26:13;;;;;;;21.50;3.85;;;;;;;;;;5055823;28;20052;-83
2022/01/03 12:29:06;;;;;;;15.20;3.85;;;;;;;;;;5058119;28;20058;-82
2022/01/03 12:31:51;;;;;;;32.45;5.60;;;;;;;;;;5056547;28;20106;-83
2022/01/03 12:34:17;;;;;;;27.58;4.18;;;;;;;;;;5054729;28;20045;-81
2022/01/03 12:37:23;;;;;;;27.25;5.25;;;11.20;95.30;;;;;;5054069;28;20087;-81
2022/01/03 12:40:04;;;;;;;24.30;3.47;;;;;;;;;;5039903;28;20110;-81
2022/01/03 12:42:50;;;;;;;20.98;4.10;;;;;;;;;;5043805;28;20102;-81
2022/01/03 12:45:16;;;;;;;31.05;4.70;;;;;;;;;;5052814;28;20067;-81
2022/01/03 12:47:43;;;;;;;29.60;3.90;;;;;;;;;;5055365;28;20131;-81
2022/01/03 12:50:41;;;;;;;20.92;3.10;;;;;;;;;;5040427;28;20155;-82
2022/01/03 12:53:26;;;;;;;22.35;4.60;;;;;;;;;;5034418;28;20056;-81
2022/01/03 12:55:53;;;;;;;33.33;4.50;;;;;;;;;;5038942;28;20613;-82
2022/01/03 12:58:19;;;;;;;23.58;4.57;;;;;;;;;;5039432;28;20052;-81
2022/01/03 13:00:58;;;;;;;27.67;4.70;;;11.10;93.40;;;;;;5058413;28;20118;-81
2022/01/03 13:03:32;;;;;;;24.30;4.43;;;;;;;;;;5059809;28;20042;-81
2022/01/03 13:06:25;;;;;;;24.38;5.32;;;11.30;94.30;;;;;;5040449;28;20427;-81
2022/01/03 13:08:54;;;;;;;27.42;4.40;;;11.60;96.00;;;;;;5055258;28;20048;-83
2022/01/03 13:11:21;;;;;;;27.83;5.20;;;;;;;;;;5052379;28;20094;-82
2022/01/03 13:13:48;;;;;;;26.83;4.25;;;;;;;;;;5050203;28;20045;-82
2022/01/03 13:16:24;;;;;;;26.20;4.60;;;11.10;94.30;;;;;;5055017;28;20127;-82
2022/01/03 13:18:50;;;;;;;28.50;5.05;;;;;;;;;;5057867;28;20045;-82
2022/01/03 13:21:17;;;;;;;21.70;3.08;;;;;;;;;;5060890;28;20496;-82
2022/01/03 13:23:55;;;;;;;26.55;4.40;;;;;;;;;;5053180;28;20257;-81
2022/01/03 13:26:23;;;;;;;22.95;3.85;;;;;;;;;;5036503;28;20041;-83
2022/01/03 13:28:50;;;;;;;25.30;3.45;;;;;;;;;;5044109;28;20041;-81
2022/01/03 13:31:17;;;;;;;18.70;3.88;;;;;;;;;;5022122;28;20040;-82
2022/01/03 13:33:43;;;;;;;23.25;4.35;;;;;;;;;;5040308;28;20039;-82
2022/01/03 13:36:15;;;;;;;15.15;3.10;;;;;;;;;;5029512;28;20594;-82
2022/01/03 13:38:41;;;;;;;29.92;4.43;;;;;;;;;;5054643;28;20114;-83
2022/01/03 13:41:10;;;;;;;18.20;3.90;;;;;;;;;;5040797;28;20049;-82
2022/01/03 13:43:41;;;;;;;25.63;5.10;;;;;;;;;;5037711;28;20048;-82
2022/01/03 13:51:19;;;;;;;20.45;3.42;;;;;;;;;;5060368;28;20049;-82
2022/01/03 13:53:52;;;;;;;28.05;5.40;;;;;;;;;;5037370;28;20704;-82
2022/01/03 13:56:19;;;;;;;11.63;3.28;;;;;;;;;;5054140;28;20713;-82
2022/01/03 13:58:45;;;;;;;29.85;6.07;;;;;;;;;;5051493;28;20040;-82
2022/01/03 14:01:12;;;;;;;21.88;4.65;;;10.80;94.80;;;;;;5039876;28;20044;-81
2022/01/03 14:03:39;;;;;;;21.60;5.03;;;;;;;;;;5044442;28;20397;-81
2022/01/03 14:06:17;;;;;;;23.58;4.55;;;;;;;;;;5043017;28;20048;-83
2022/01/03 14:08:45;;;;;;;19.85;3.30;;;;;;;;;;5036719;28;20068;-82
2022/01/03 14:11:15;;;;;;;30.13;4.55;;;;;;;;;;5033658;28;20036;-81
2022/01/03 14:13:41;;;;;;;23.52;3.35;;;;;;;;;;5052907;28;20057;-82
2022/01/03 14:16:08;;;;;;;20.15;3.58;;;;;;;;;;5055814;28;20542;-81
2022/01/03 14:18:51;;;;;;;23.73;5.10;;;;;;;;;;5054553;28;20119;-81
2022/01/03 14:21:17;;;;;;;28.55;4.47;;;;;;;;;;5059159;28;20505;-81
2022/01/03 14:23:47;;;;;;;27.25;4.75;;;;;;;;;;5042750;28;20047;-80
2022/01/03 14:26:14;;;;;;;31.83;4.30;;;;;;;;;;5054926;28;20482;-83
2022/01/03 14:28:41;;;;;;;19.92;4.38;;;;;;;;;;5053387;28;20072;-81
2022/01/03 14:31:08;;;;;;;22.95;4.07;;;;;;;;;;5060527;28;20044;-81
2022/01/03 14:33:39;;;;;;;25.33;4.55;;;;;;;;;;5056136;28;20037;-80
2022/01/03 14:36:11;;;;;;;21.75;5.85;;;;;;;;;;5045513;28;20095;-81
2022/01/03 14:38:40;;;;;;;25.42;4.40;;;;;;;;;;5062977;28;20084;-81
2022/01/03 14:41:13;;;;;;;26.85;5.65;;;;;;;;;;5040712;28;20048;-81
2022/01/03 14:43:39;;;;;;;28.52;6.50;;;;;;;;;;5056163;28;20607;-81
2022/01/03 14:46:07;;;;;;;42.70;7.13;;;9.60;99.90;;;;;;5059510;28;20405;-82
2022/01/03 14:48:34;;;;;;;28.75;5.38;;;;;;;;;;5042632;28;20481;-81
2022/01/03 14:51:14;;;;;;;24.40;4.95;;;;;;;;;;5052641;28;20036;-81
2022/01/03 14:53:40;;;;;;;33.35;6.43;;;;;;;;;;5059330;28;20465;-81
2022/01/03 14:56:06;;;;;;;23.35;5.72;;;;;;;;;;5041950;28;20135;-81